Time;durP1;ratioP1;P1;durP2;ratioP2;P2;SDS_P1;SDS_P2;PMS_P1;PMS_P2;Temp;Humidity;BMP_temperature;BMP_pressure;BME280_temperature;BME280_humidity;BME280_pressure;Samples;Min_cycle;Max_cycle;Signal;HPM_P1;HPM_P2
2023/01/20 00:00:58;;;;;;;58.53;25.95;;;;;;;-144.31;100.00;58022.63;5038014;28;20490;-61
2023/01/20 00:04:23;;;;;;;62.17;29.83;;;;;;;-144.31;100.00;58022.63;5027143;28;20203;-58
2023/01/20 00:07:47;;;;;;;58.42;29.88;;;;;;;-144.31;100.00;58022.63;5026581;28;20029;-58
2023/01/20 00:11:11;;;;;;;49.63;24.02;;;;;;;-144.31;100.00;58022.63;5024939;28;20501;-59
2023/01/20 00:14:36;;;;;;;50.35;25.33;;;;;;;-144.31;100.00;58022.63;5024968;28;20037;-58
2023/01/20 00:18:00;;;;;;;49.95;22.95;;;;;;;-144.31;100.00;58022.63;5031669;28;20044;-59
2023/01/20 00:21:24;;;;;;;50.17;22.50;;;;;;;-144.31;100.00;58022.63;5029120;28;20036;-59
2023/01/20 00:24:48;;;;;;;54.03;23.00;;;;;;;-144.31;100.00;58022.63;5028337;28;20096;-61
2023/01/20 00:28:13;;;;;;;42.25;21.80;;;;;;;-144.31;100.00;58022.63;5024766;28;20046;-59
2023/01/20 00:31:37;;;;;;;42.95;21.27;;;;;;;-144.31;100.00;58022.63;5022362;28;20032;-61
2023/01/20 00:35:01;;;;;;;46.58;22.42;;;;;;;-144.31;100.00;58022.63;5023504;28;20087;-59
2023/01/20 00:38:25;;;;;;;50.92;23.08;;;;;;;-144.31;100.00;58022.63;5029866;28;20490;-58
2023/01/20 00:41:52;;;;;;;42.70;21.85;;;;;;;-144.31;100.00;58022.63;5032603;28;20034;-59
2023/01/20 00:45:16;;;;;;;47.85;24.67;;;;;;;-144.31;100.00;58022.63;5030986;28;20124;-60
2023/01/20 00:48:40;;;;;;;45.17;20.80;;;;;;;-144.31;100.00;58022.63;5023647;28;20345;-61
2023/01/20 00:52:05;;;;;;;42.28;21.83;;;;;;;-144.31;100.00;58022.63;5024510;28;20034;-59
2023/01/20 00:55:29;;;;;;;47.10;19.92;;;;;;;-144.31;100.00;58022.63;5023480;28;20048;-59
2023/01/20 00:58:56;;;;;;;35.63;19.27;;;;;;;-144.31;100.00;58022.63;5026036;28;20059;-59
2023/01/20 01:02:20;;;;;;;30.73;17.30;;;;;;;-144.31;100.00;58022.63;5037107;28;20099;-55
2023/01/20 01:05:48;;;;;;;28.25;16.10;;;;;;;-144.31;100.00;58022.63;5038376;28;20486;-58
2023/01/20 01:09:12;;;;;;;33.60;19.10;;;;;;;-144.31;100.00;58022.63;5029119;28;20497;-59
2023/01/20 01:12:36;;;;;;;30.80;17.75;;;;;;;-144.31;100.00;58022.63;5026802;28;20498;-58
2023/01/20 01:16:00;;;;;;;33.28;18.73;;;;;;;-144.31;100.00;58022.63;5030624;28;20497;-58
2023/01/20 01:19:24;;;;;;;33.22;18.52;;;;;;;-144.31;100.00;58022.63;5027806;28;20128;-58
2023/01/20 01:22:48;;;;;;;37.28;19.67;;;;;;;-144.31;100.00;58022.63;5035809;28;20033;-58
2023/01/20 01:26:12;;;;;;;34.75;19.08;;;;;;;-144.31;100.00;58022.63;5032001;28;20112;-59
2023/01/20 01:29:37;;;;;;;35.08;17.23;;;;;;;-144.31;100.00;58022.63;5036235;28;20040;-58
2023/01/20 01:33:01;;;;;;;35.45;19.15;;;;;;;-144.31;100.00;58022.63;5031761;28;20057;-58
2023/01/20 01:36:25;;;;;;;36.05;18.63;;;;;;;-144.31;100.00;58022.63;5030540;28;20037;-60
2023/01/20 01:39:49;;;;;;;41.55;20.48;;;;;;;-144.31;100.00;58022.63;5027749;28;20814;-58
2023/01/20 01:43:24;;;;;;;36.25;20.08;;;;;;;-144.31;100.00;58022.63;5027450;28;20144;-59
2023/01/20 01:46:48;;;;;;;38.30;19.80;;;;;;;-144.31;100.00;58022.63;5034407;28;20546;-56
2023/01/20 01:50:26;;;;;;;42.53;18.55;;;;;;;-144.31;100.00;58022.63;5036347;28;20046;-60
2023/01/20 01:53:53;;;;;;;35.25;19.02;;;;;;;-144.31;100.00;58022.63;5031937;28;20679;-58
2023/01/20 01:57:19;;;;;;;37.45;20.05;;;;;;;-144.31;100.00;58022.63;5029667;28;20621;-57
2023/01/20 02:00:43;;;;;;;33.03;18.48;;;;;;;-144.31;100.00;58022.63;5028950;28;20556;-60
2023/01/20 02:04:13;;;;;;;36.13;19.35;;;;;;;-144.31;100.00;58022.63;5029260;28;20036;-59
2023/01/20 02:07:38;;;;;;;30.77;17.58;;;;;;;-144.31;100.00;58022.63;5026373;28;20526;-57
2023/01/20 02:11:03;;;;;;;31.67;18.50;;;;;;;-144.31;100.00;58022.63;5029653;28;20044;-59
2023/01/20 02:14:35;;;;;;;32.20;18.23;;;;;;;-144.31;100.00;58022.63;5033167;28;20107;-59
2023/01/20 02:18:20;;;;;;;32.92;18.02;;;;;;;-144.31;100.00;58022.63;5034256;28;20041;-56
2023/01/20 02:22:16;;;;;;;34.80;18.20;;;;;;;-144.31;100.00;58022.63;5025991;28;20036;-58
2023/01/20 02:26:25;;;;;;;32.17;18.23;;;;;;;-144.31;100.00;58022.63;5025354;28;20458;-58
2023/01/20 02:30:30;;;;;;;38.95;18.58;;;;;;;-144.31;100.00;58022.63;5013100;28;20049;-57
2023/01/20 02:34:17;;;;;;;32.60;17.80;;;;;;;-144.31;100.00;58022.63;5025376;28;20048;-58
2023/01/20 02:38:12;;;;;;;37.17;18.67;;;;;;;-144.31;100.00;58022.63;5027381;28;20486;-57
2023/01/20 02:41:57;;;;;;;36.13;19.65;;;;;;;-144.31;100.00;58022.63;5034577;28;20029;-58
2023/01/20 02:45:44;;;;;;;32.10;19.55;;;;;;;-144.31;100.00;58022.63;5030739;28;20103;-56
2023/01/20 02:49:13;;;;;;;32.95;19.40;;;;;;;-144.31;100.00;58022.63;5026728;28;20049;-60
2023/01/20 02:52:44;;;;;;;35.05;19.77;;;;;;;-144.31;100.00;58022.63;5032022;28;20029;-56
2023/01/20 02:56:11;;;;;;;30.38;18.27;;;;;;;-144.31;100.00;58022.63;5027634;28;20458;-59
2023/01/20 02:59:42;;;;;;;39.90;18.27;;;;;;;-144.31;100.00;58022.63;5039880;28;20045;-54
2023/01/20 03:03:11;;;;;;;32.08;18.08;;;;;;;-144.31;100.00;58022.63;5036401;28;20033;-59
2023/01/20 03:06:42;;;;;;;31.92;17.63;;;;;;;-144.31;100.00;58022.63;5032120;28;20435;-58
2023/01/20 03:10:10;;;;;;;31.52;17.42;;;;;;;-144.31;100.00;58022.63;5028306;28;20032;-58
2023/01/20 03:13:57;;;;;;;33.17;19.00;;;;;;;-144.31;100.00;58022.63;5027370;28;20037;-58
2023/01/20 03:17:22;;;;;;;30.52;16.83;;;;;;;-144.31;100.00;58022.63;5031515;28;20041;-56
2023/01/20 03:20:46;;;;;;;36.10;17.98;;;;;;;-144.31;100.00;58022.63;5024845;28;20037;-57
2023/01/20 03:24:04;;;;;;;32.92;18.02;;;;;;;-144.31;100.00;58022.63;5026693;28;20032;-58
2023/01/20 03:26:34;;;;;;;31.30;17.95;;;;;;;-144.31;100.00;58022.63;5037213;28;20040;-57
2023/01/20 03:29:14;;;;;;;30.50;17.20;;;;;;;-144.31;100.00;58022.63;5027964;28;20029;-61
2023/01/20 03:32:01;;;;;;;36.05;19.20;;;;;;;-144.31;100.00;58022.63;5026781;28;20037;-57
2023/01/20 03:34:53;;;;;;;31.53;19.00;;;;;;;-144.31;100.00;58022.63;5040837;28;20183;-57
2023/01/20 03:37:38;;;;;;;35.25;19.52;;;;;;;-144.31;100.00;58022.63;5026676;28;21102;-60
2023/01/20 03:40:05;;;;;;;33.10;18.73;;;;;;;-144.31;100.00;58022.63;5025672;28;20041;-60
2023/01/20 03:42:52;;;;;;;29.25;17.58;;;;;;;-144.31;100.00;58022.63;5032007;28;20055;-55
2023/01/20 03:45:41;;;;;;;29.52;17.13;;;;;;;-144.31;100.00;58022.63;5030666;28;20032;-58
2023/01/20 03:48:21;;;;;;;36.22;17.75;;;;;;;-144.31;100.00;58022.63;5027415;28;20028;-58
2023/01/20 03:51:00;;;;;;;28.15;17.73;;;;;;;-144.31;100.00;58022.63;5037394;28;20045;-58
2023/01/20 03:53:31;;;;;;;30.65;17.50;;;;;;;-144.31;100.00;58022.63;5034913;28;20406;-56
2023/01/20 03:56:13;;;;;;;30.73;18.60;;;;;;;-144.31;100.00;58022.63;5025790;28;20136;-59
2023/01/20 03:58:43;;;;;;;29.63;18.58;;;;;;;-144.31;100.00;58022.63;5037145;28;20059;-58
2023/01/20 04:01:11;;;;;;;32.92;19.58;;;;;;;-144.31;100.00;58022.63;5029554;28;20044;-55
2023/01/20 04:03:42;;;;;;;31.38;17.52;;;;;;;-144.31;100.00;58022.63;5027475;28;20041;-56
2023/01/20 04:06:11;;;;;;;33.78;18.15;;;;;;;-144.31;100.00;58022.63;5029843;28;20162;-58
2023/01/20 04:08:43;;;;;;;29.10;18.15;;;;;;;-144.31;100.00;58022.63;5024898;28;20029;-60
2023/01/20 04:11:08;;;;;;;33.13;18.23;;;;;;;-144.31;100.00;58022.63;5031166;28;20095;-58
2023/01/20 04:13:34;;;;;;;32.55;18.30;;;;;;;-144.31;100.00;58022.63;5025579;28;20508;-60
2023/01/20 04:16:02;;;;;;;32.38;18.58;;;;;;;-144.31;100.00;58022.63;5024535;28;20029;-60
2023/01/20 04:18:28;;;;;;;35.80;19.67;;;;;;;-144.31;100.00;58022.63;5031109;28;20107;-58
2023/01/20 04:21:00;;;;;;;29.33;18.95;;;;;;;-144.31;100.00;58022.63;5024515;28;20490;-59
2023/01/20 04:23:32;;;;;;;30.65;17.67;;;;;;;-144.31;100.00;58022.63;5031410;28;20343;-61
2023/01/20 04:25:58;;;;;;;34.83;18.35;;;;;;;-144.31;100.00;58022.63;5030910;28;20494;-59
2023/01/20 04:28:23;;;;;;;30.92;18.52;;;;;;;-144.31;100.00;58022.63;5024910;28;20071;-56
2023/01/20 04:30:49;;;;;;;29.98;18.77;;;;;;;-144.31;100.00;58022.63;5031790;28;20044;-58
2023/01/20 04:33:15;;;;;;;34.45;19.33;;;;;;;-144.31;100.00;58022.63;5027648;28;20037;-59
2023/01/20 04:35:40;;;;;;;32.97;18.25;;;;;;;-144.31;100.00;58022.63;5031040;28;20059;-58
2023/01/20 04:38:08;;;;;;;28.33;17.00;;;;;;;-144.31;100.00;58022.63;5039233;28;20492;-58
2023/01/20 04:40:37;;;;;;;30.67;18.75;;;;;;;-144.31;100.00;58022.63;5033690;28;20119;-58
2023/01/20 04:43:14;;;;;;;33.80;18.65;;;;;;;-144.31;100.00;58022.63;5035332;28;20049;-58
2023/01/20 04:45:45;;;;;;;36.38;18.65;;;;;;;-144.31;100.00;58022.63;5029478;28;20029;-57
2023/01/20 04:48:11;;;;;;;32.05;19.75;;;;;;;-144.31;100.00;58022.63;5036639;28;20036;-58
2023/01/20 04:50:49;;;;;;;37.65;21.10;;;;;;;-144.31;100.00;58022.63;5034299;28;20044;-57
2023/01/20 04:53:34;;;;;;;;;;;;;;;-144.31;100.00;58022.63;5030519;28;20423;-55
2023/01/20 04:56:18;;;;;;;34.05;20.17;;;;;;;-144.31;100.00;58022.63;5035062;28;19951;-58
2023/01/20 04:59:01;;;;;;;34.20;20.67;;;;;;;-144.31;100.00;58022.63;5038910;28;20045;-58
2023/01/20 05:01:58;;;;;;;33.85;20.52;;;;;;;-144.31;100.00;58022.63;5031072;28;20485;-58
2023/01/20 05:04:44;;;;;;;35.25;20.88;;;;;;;-144.31;100.00;58022.63;5030416;28;20489;-56
2023/01/20 05:07:30;;;;;;;43.30;25.67;;;;;;;-144.31;100.00;58022.63;5037791;28;20514;-57
2023/01/20 05:10:17;;;;;;;38.03;21.85;;;;;;;-144.31;100.00;58022.63;5027861;28;20033;-56
2023/01/20 05:13:03;;;;;;;;;;;;;;;-144.31;100.00;58022.63;5030321;28;20029;-58
2023/01/20 05:15:28;;;;;;;34.60;20.88;;;;;;;-144.31;100.00;58022.63;5039495;28;19971;-57
2023/01/20 05:18:17;;;;;;;34.05;19.73;;;;;;;-144.31;100.00;58022.63;5033237;28;20045;-57
2023/01/20 05:20:54;;;;;;;36.08;20.83;;;;;;;-144.31;100.00;58022.63;5043665;28;20036;-56
2023/01/20 05:23:38;;;;;;;36.10;21.38;;;;;;;-144.31;100.00;58022.63;5041825;28;20846;-56
2023/01/20 05:26:19;;;;;;;42.22;21.80;;;;;;;-144.31;100.00;58022.63;5032356;28;20040;-58
2023/01/20 05:28:55;;;;;;;37.67;21.50;;;;;;;-144.31;100.00;58022.63;5032947;28;20401;-58
2023/01/20 05:31:21;;;;;;;39.45;22.42;;;;;;;-144.31;100.00;58022.63;5033920;28;20056;-61
2023/01/20 05:33:51;;;;;;;40.42;23.30;;;;;;;-144.31;100.00;58022.63;5032559;28;20405;-58
2023/01/20 05:36:17;;;;;;;42.30;23.42;;;;;;;-144.31;100.00;58022.63;5034525;28;20029;-58
2023/01/20 05:38:43;;;;;;;39.22;24.13;;;;;;;-144.31;100.00;58022.63;5033246;28;20737;-57
2023/01/20 05:41:09;;;;;;;44.75;24.70;;;;;;;-144.31;100.00;58022.63;5027164;28;20072;-58
2023/01/20 05:43:35;;;;;;;40.13;23.33;;;;;;;-144.31;100.00;58022.63;5037010;28;20088;-56
2023/01/20 05:46:02;;;;;;;38.22;22.38;;;;;;;-144.31;100.00;58022.63;5031792;28;20026;-57
2023/01/20 05:48:29;;;;;;;46.05;23.38;;;;;;;-144.31;100.00;58022.63;5026655;28;20853;-57
2023/01/20 05:50:54;;;;;;;43.70;23.85;;;;;;;-144.31;100.00;58022.63;5037467;28;20041;-57
2023/01/20 05:53:56;;;;;;;44.50;22.83;;;;;;;-144.31;100.00;58022.63;4997044;28;20049;-58
2023/01/20 05:56:27;;;;;;;43.72;24.60;;;;;;;-144.31;100.00;58022.63;5029862;28;20037;-58
2023/01/20 05:59:21;;;;;;;37.78;23.48;;;;;;;-144.31;100.00;58022.63;5035855;28;20048;-56
2023/01/20 06:01:54;;;;;;;43.83;25.00;;;;;;;-144.31;100.00;58022.63;5027166;28;20066;-57
2023/01/20 06:04:19;;;;;;;37.15;22.85;;;;;;;-144.31;100.00;58022.63;5030586;28;20029;-61
2023/01/20 06:06:45;;;;;;;41.80;23.60;;;;;;;-144.31;100.00;58022.63;5029415;28;20044;-56
2023/01/20 06:09:10;;;;;;;46.70;25.05;;;;;;;-144.31;100.00;58022.63;5025707;28;20410;-58
2023/01/20 06:11:35;;;;;;;42.78;25.63;;;;;;;-144.31;100.00;58022.63;5031551;28;20747;-53
2023/01/20 06:14:01;;;;;;;42.70;25.45;;;;;;;-144.31;100.00;58022.63;5028348;28;20039;-58
2023/01/20 06:16:26;;;;;;;42.67;25.77;;;;;;;-144.31;100.00;58022.63;5029285;28;20044;-60
2023/01/20 06:18:52;;;;;;;43.63;25.23;;;;;;;-144.31;100.00;58022.63;5031524;28;20422;-56
2023/01/20 06:21:17;;;;;;;51.40;26.77;;;;;;;-144.31;100.00;58022.63;5029318;28;20078;-56
2023/01/20 06:24:33;;;;;;;43.88;25.00;;;;;;;-144.31;100.00;58022.63;5034399;28;20092;-58
2023/01/20 06:27:40;;;;;;;42.80;23.35;;;;;;;-144.31;100.00;58022.63;5032483;28;20136;-58
2023/01/20 06:31:08;;;;;;;36.33;21.88;;;;;;;-144.31;100.00;58022.63;5026085;28;20119;-54
2023/01/20 06:34:32;;;;;;;36.67;22.08;;;;;;;-144.31;100.00;58022.63;5026612;28;20033;-60
2023/01/20 06:37:56;;;;;;;46.22;23.10;;;;;;;-144.31;100.00;58022.63;5026372;28;20040;-67
2023/01/20 06:41:20;;;;;;;48.38;24.52;;;;;;;-144.31;100.00;58022.63;5033520;28;20491;-62
2023/01/20 06:44:44;;;;;;;42.85;23.80;;;;;;;-144.31;100.00;58022.63;5032947;28;20091;-62
2023/01/20 06:48:08;;;;;;;41.97;23.55;;;;;;;-144.31;100.00;58022.63;5031584;28;20127;-59
2023/01/20 06:51:32;;;;;;;46.13;23.88;;;;;;;-144.31;100.00;58022.63;5025746;28;20094;-55
2023/01/20 06:54:55;;;;;;;41.92;23.25;;;;;;;-144.31;100.00;58022.63;5027019;28;20156;-58
2023/01/20 06:58:18;;;;;;;42.33;22.45;;;;;;;-144.31;100.00;58022.63;5027398;28;20120;-62
2023/01/20 07:01:39;;;;;;;36.90;22.48;;;;;;;-144.31;100.00;58022.63;5033055;28;20080;-59
2023/01/20 07:05:06;;;;;;;35.63;22.35;;;;;;;-144.31;100.00;58022.63;5031228;28;20044;-60
2023/01/20 07:08:31;;;;;;;46.15;27.08;;;;;;;-144.31;100.00;58022.63;5032493;28;20041;-56
2023/01/20 07:11:55;;;;;;;54.33;27.83;;;;;;;-144.31;100.00;58022.63;5024822;28;20038;-61
2023/01/20 07:15:19;;;;;;;39.05;23.13;;;;;;;-144.31;100.00;58022.63;5029769;28;20033;-56
2023/01/20 07:18:46;;;;;;;33.17;20.30;;;;;;;-144.31;100.00;58022.63;5029098;28;20072;-58
2023/01/20 07:22:10;;;;;;;35.60;23.05;;;;;;;-144.31;100.00;58022.63;5030790;28;20121;-57
2023/01/20 07:25:36;;;;;;;32.90;21.67;;;;;;;-144.31;100.00;58022.63;5033279;28;20559;-58
2023/01/20 07:29:00;;;;;;;31.70;20.52;;;;;;;-144.31;100.00;58022.63;5032151;28;20102;-60
2023/01/20 07:32:28;;;;;;;35.03;20.40;;;;;;;-144.31;100.00;58022.63;5034853;28;20068;-58
2023/01/20 07:35:53;;;;;;;35.75;19.58;;;;;;;-144.31;100.00;58022.63;5034461;28;20032;-59
2023/01/20 07:39:18;;;;;;;36.85;20.70;;;;;;;-144.31;100.00;58022.63;5032753;28;20038;-59
2023/01/20 07:42:43;;;;;;;32.40;20.95;;;;;;;-144.31;100.00;58022.63;5034633;28;20049;-56
2023/01/20 07:46:06;;;;;;;40.03;23.00;;;;;;;-144.31;100.00;58022.63;5032529;28;20025;-54
2023/01/20 07:49:30;;;;;;;36.60;20.25;;;;;;;-144.31;100.00;58022.63;5034688;28;20485;-56
2023/01/20 07:52:54;;;;;;;40.63;22.15;;;;;;;-144.31;100.00;58022.63;5031582;28;20439;-55
2023/01/20 07:56:20;;;;;;;35.58;21.15;;;;;;;-144.31;100.00;58022.63;5036947;28;20042;-54
2023/01/20 07:59:45;;;;;;;39.92;21.83;;;;;;;-144.31;100.00;58022.63;5035796;28;20048;-55
2023/01/20 08:03:08;;;;;;;41.67;22.02;;;;;;;-144.31;100.00;58022.63;5034722;28;20061;-58
2023/01/20 08:06:32;;;;;;;38.22;21.30;;;;;;;-144.31;100.00;58022.63;5034830;28;20036;-57
2023/01/20 08:09:57;;;;;;;38.08;20.90;;;;;;;-144.31;100.00;58022.63;5035392;28;20069;-57
2023/01/20 08:13:21;;;;;;;40.67;23.02;;;;;;;-144.31;100.00;58022.63;5027287;28;20088;-55
2023/01/20 08:16:45;;;;;;;56.15;26.27;;;;;;;-144.31;100.00;58022.63;5032037;28;20082;-55
2023/01/20 08:20:09;;;;;;;45.65;23.92;;;;;;;-144.31;100.00;58022.63;5032496;28;20037;-59
2023/01/20 08:23:34;;;;;;;39.30;21.25;;;;;;;-144.31;100.00;58022.63;5032059;28;20038;-55
2023/01/20 08:26:58;;;;;;;35.75;20.73;;;;;;;-144.31;100.00;58022.63;5028819;28;20037;-57
2023/01/20 08:30:22;;;;;;;53.88;28.73;;;;;;;-144.31;100.00;58022.63;5029151;28;20156;-58
2023/01/20 08:33:47;;;;;;;51.65;25.65;;;;;;;-144.31;100.00;58022.63;5033545;28;20821;-54
2023/01/20 08:37:13;;;;;;;45.47;23.63;;;;;;;-144.31;100.00;58022.63;5029816;28;20069;-57
2023/01/20 08:40:39;;;;;;;41.08;23.77;;;;;;;-144.31;100.00;58022.63;5032969;28;20041;-57
2023/01/20 08:44:04;;;;;;;36.28;20.95;;;;;;;-144.31;100.00;58022.63;5031085;28;20493;-57
2023/01/20 08:47:29;;;;;;;41.28;25.33;;;;;;;-144.31;100.00;58022.63;5032204;28;20048;-57
2023/01/20 08:50:53;;;;;;;32.42;21.20;;;;;;;-144.31;100.00;58022.63;5037589;28;20047;-57
2023/01/20 08:54:18;;;;;;;34.22;17.73;;;;;;;-144.31;100.00;58022.63;5029554;28;20579;-60
2023/01/20 08:57:41;;;;;;;30.80;18.35;;;;;;;-144.31;100.00;58022.63;5029104;28;20062;-54
2023/01/20 09:01:13;;;;;;;27.42;17.08;;;;;;;-144.31;100.00;58022.63;5033382;28;20183;-57
2023/01/20 09:04:38;;;;;;;29.67;17.70;;;;;;;-144.31;100.00;58022.63;5031476;28;20457;-59
2023/01/20 09:08:02;;;;;;;28.05;16.52;;;;;;;-144.31;100.00;58022.63;5030731;28;20042;-60
2023/01/20 09:11:26;;;;;;;33.45;18.55;;;;;;;-144.31;100.00;58022.63;5030088;28;20481;-59
2023/01/20 09:14:50;;;;;;;34.33;17.67;;;;;;;-144.31;100.00;58022.63;5032768;28;20132;-56
2023/01/20 09:18:14;;;;;;;35.63;19.00;;;;;;;-144.31;100.00;58022.63;5028930;28;20040;-56
2023/01/20 09:21:38;;;;;;;34.47;19.27;;;;;;;-144.31;100.00;58022.63;5034660;28;20041;-59
2023/01/20 09:25:02;;;;;;;26.17;16.92;;;;;;;-144.31;100.00;58022.63;5033337;28;20041;-57
2023/01/20 09:28:27;;;;;;;27.65;16.65;;;;;;;-144.31;100.00;58022.63;5030105;28;20037;-57
2023/01/20 09:31:57;;;;;;;27.45;15.65;;;;;;;-144.31;100.00;58022.63;5032509;28;20409;-57
2023/01/20 09:35:22;;;;;;;30.48;16.73;;;;;;;-144.31;100.00;58022.63;5032966;28;20029;-59
2023/01/20 09:47:18;;;;;;;25.67;15.32;;;;;;;-144.31;100.00;58022.63;5033308;28;20087;-56
2023/01/20 09:54:49;;;;;;;26.67;15.05;;;;;;;-144.31;100.00;58022.63;5036844;28;20447;-58
2023/01/20 09:58:23;;;;;;;28.23;15.75;;;;;;;-144.31;100.00;58022.63;5033363;28;20038;-57
2023/01/20 10:01:54;;;;;;;26.60;16.95;;;;;;;-144.31;100.00;58022.63;5034657;28;20148;-62
2023/01/20 10:05:29;;;;;;;27.92;16.60;;;;;;;-144.31;100.00;58022.63;5030384;28;20076;-57
2023/01/20 10:09:02;;;;;;;28.40;18.30;;;;;;;-144.31;100.00;58022.63;5031795;28;20076;-58
2023/01/20 10:12:28;;;;;;;28.02;17.98;;;;;;;-144.31;100.00;58022.63;5032480;28;20382;-58
2023/01/20 10:16:00;;;;;;;29.77;18.02;;;;;;;-144.31;100.00;58022.63;5036850;28;20072;-57
2023/01/20 10:19:42;;;;;;;27.00;16.10;;;;;;;-144.31;100.00;58022.63;5034364;28;20041;-56
2023/01/20 10:23:26;;;;;;;28.27;16.80;;;;;;;-144.31;100.00;58022.63;5033207;28;20427;-52
2023/01/20 10:27:06;;;;;;;25.08;16.15;;;;;;;-144.31;100.00;58022.63;5033219;28;20049;-59
2023/01/20 10:30:35;;;;;;;30.23;17.73;;;;;;;-144.31;100.00;58022.63;5034291;28;20090;-60
2023/01/20 10:34:17;;;;;;;29.50;17.50;;;;;;;-144.31;100.00;58022.63;5033399;28;20037;-61
2023/01/20 10:37:42;;;;;;;25.45;15.75;;;;;;;-144.31;100.00;58022.63;5034486;28;20066;-58
2023/01/20 10:41:53;;;;;;;26.17;17.73;;;;;;;-144.31;100.00;58022.63;5033707;28;20036;-53
2023/01/20 10:45:40;;;;;;;28.63;16.80;;;;;;;-144.31;100.00;58022.63;5013704;28;20144;-56
2023/01/20 10:49:32;;;;;;;24.30;15.77;;;;;;;-144.31;100.00;58022.63;5034761;28;20036;-57
2023/01/20 10:53:08;;;;;;;31.15;16.85;;;;;;;-144.31;100.00;58022.63;5032152;28;20120;-58
2023/01/20 10:57:12;;;;;;;25.70;15.68;;;;;;;-144.31;100.00;58022.63;5032854;28;20037;-60
2023/01/20 11:00:41;;;;;;;24.65;15.50;;;;;;;-144.31;100.00;58022.63;5011911;28;20050;-54
2023/01/20 11:04:14;;;;;;;28.92;15.70;;;;;;;-144.31;100.00;58022.63;5019324;28;20799;-60
2023/01/20 11:07:39;;;;;;;25.90;14.68;;;;;;;-144.31;100.00;58022.63;5034369;28;20037;-55
2023/01/20 11:11:16;;;;;;;22.23;14.50;;;;;;;-144.31;100.00;58022.63;5038357;28;20429;-56
2023/01/20 11:14:41;;;;;;;23.75;14.60;;;;;;;-144.31;100.00;58022.63;5031539;28;20046;-52
2023/01/20 11:18:13;;;;;;;22.98;12.85;;;;;;;-144.31;100.00;58022.63;5034433;28;20052;-55
2023/01/20 11:21:47;;;;;;;24.92;13.02;;;;;;;-144.31;100.00;58022.63;5034027;28;20060;-55
2023/01/20 11:25:29;;;;;;;23.48;14.02;;;;;;;-144.31;100.00;58022.63;5030824;28;20070;-54
2023/01/20 11:28:53;;;;;;;17.40;12.18;;;;;;;-144.31;100.00;58022.63;5031109;28;20822;-57
2023/01/20 11:32:26;;;;;;;23.10;12.68;;;;;;;-144.31;100.00;58022.63;5030888;28;20049;-57
2023/01/20 11:36:02;;;;;;;17.48;11.27;;;;;;;-144.31;100.00;58022.63;5032684;28;20688;-57
2023/01/20 11:39:29;;;;;;;17.35;10.52;;;;;;;-144.31;100.00;58022.63;5032485;28;20048;-55
2023/01/20 11:43:25;;;;;;;17.95;10.30;;;;;;;-144.31;100.00;58022.63;5031718;28;20037;-60
2023/01/20 11:46:50;;;;;;;16.90;10.35;;;;;;;-144.31;100.00;58022.63;5031454;28;20087;-55
2023/01/20 11:50:16;;;;;;;16.67;10.38;;;;;;;-144.31;100.00;58022.63;5031534;28;20474;-58
2023/01/20 11:53:43;;;;;;;19.67;10.25;;;;;;;-144.31;100.00;58022.63;5031574;28;20115;-58
2023/01/20 11:57:12;;;;;;;;;;;;;;;-144.31;100.00;58022.63;5036045;28;20046;-59
2023/01/20 12:00:43;;;;;;;17.58;11.13;;;;;;;-144.31;100.00;58022.63;5033654;28;19921;-58
2023/01/20 12:04:07;;;;;;;15.27;10.30;;;;;;;-144.31;100.00;58022.63;5041603;28;20548;-54
2023/01/20 12:07:40;;;;;;;18.02;10.98;;;;;;;-144.31;100.00;58022.63;5033161;28;20080;-58
2023/01/20 12:11:37;;;;;;;16.85;10.35;;;;;;;-144.31;100.00;58022.63;5032094;28;20119;-59
2023/01/20 12:15:01;;;;;;;18.17;11.43;;;;;;;-144.31;100.00;58022.63;5041610;28;20604;-58
2023/01/20 12:18:48;;;;;;;21.52;11.57;;;;;;;-144.31;100.00;58022.63;5032360;28;20068;-57
2023/01/20 12:22:19;;;;;;;22.00;12.50;;;;;;;-144.31;100.00;58022.63;5035395;28;20545;-57
2023/01/20 12:25:56;;;;;;;19.25;12.02;;;;;;;-144.31;100.00;58022.63;5030787;28;20527;-56
2023/01/20 12:29:43;;;;;;;20.60;11.85;;;;;;;-144.31;100.00;58022.63;5041382;28;20037;-53
2023/01/20 12:33:17;;;;;;;18.13;12.10;;;;;;;-144.31;100.00;58022.63;5040432;28;20693;-58
2023/01/20 12:36:59;;;;;;;19.83;12.52;;;;;;;-144.31;100.00;58022.63;5031277;28;20479;-60
2023/01/20 12:40:28;;;;;;;17.25;10.05;;;;;;;-144.31;100.00;58022.63;5034723;28;20029;-58
2023/01/20 12:44:14;;;;;;;15.60;10.63;;;;;;;-144.31;100.00;58022.63;5032830;28;20449;-52
2023/01/20 12:48:21;;;;;;;17.77;10.15;;;;;;;-144.31;100.00;58022.63;5029749;28;20081;-57
2023/01/20 12:51:48;;;;;;;18.08;10.10;;;;;;;-144.31;100.00;58022.63;5034287;28;20339;-56
2023/01/20 12:55:26;;;;;;;19.67;11.18;;;;;;;-144.31;100.00;58022.63;5041260;28;20831;-55
2023/01/20 12:59:20;;;;;;;22.27;11.35;;;;;;;-144.31;100.00;58022.63;5036350;28;20098;-59
2023/01/20 13:03:05;;;;;;;19.58;10.63;;;;;;;-144.31;100.00;58022.63;5035729;28;20122;-51
2023/01/20 13:06:44;;;;;;;16.73;11.13;;;;;;;-144.31;100.00;58022.63;5033401;28;20049;-59
2023/01/20 13:10:28;;;;;;;20.33;11.15;;;;;;;-144.31;100.00;58022.63;5032684;28;20160;-58
2023/01/20 13:13:52;;;;;;;22.48;11.88;;;;;;;-144.31;100.00;58022.63;5037536;28;20123;-59
2023/01/20 13:17:25;;;;;;;18.08;10.98;;;;;;;-144.31;100.00;58022.63;5035881;28;20048;-61
2023/01/20 13:20:52;;;;;;;18.80;10.32;;;;;;;-144.31;100.00;58022.63;5032686;28;20042;-54
2023/01/20 13:24:28;;;;;;;16.65;10.35;;;;;;;-144.31;100.00;58022.63;5032200;28;20515;-56
2023/01/20 13:27:53;;;;;;;17.48;11.35;;;;;;;-144.31;100.00;58022.63;5033972;28;20083;-56
2023/01/20 13:31:52;;;;;;;18.23;11.53;;;;;;;-144.31;100.00;58022.63;5034200;28;20069;-59
2023/01/20 13:35:19;;;;;;;17.83;10.80;;;;;;;-144.31;100.00;58022.63;5031807;28;20547;-58
2023/01/20 13:38:23;;;;;;;21.35;11.88;;;;;;;-144.31;100.00;58022.63;5035821;28;20116;-58
2023/01/20 13:41:33;;;;;;;20.48;11.70;;;;;;;-144.31;100.00;58022.63;5034543;28;20490;-57
2023/01/20 13:45:12;;;;;;;18.23;11.23;;;;;;;-144.31;100.00;58022.63;5036000;28;20579;-58
2023/01/20 13:49:19;;;;;;;14.50;10.10;;;;;;;-144.31;100.00;58022.63;5032316;28;20076;-57
2023/01/20 13:52:49;;;;;;;16.55;8.88;;;;;;;-144.31;100.00;58022.63;5040614;28;20540;-60
2023/01/20 13:56:31;;;;;;;12.98;8.98;;;;;;;-144.31;100.00;58022.63;5038728;28;20036;-59
2023/01/20 13:59:55;;;;;;;18.17;8.45;;;;;;;-144.31;100.00;58022.63;5039258;28;20071;-55
2023/01/20 14:03:23;;;;;;;13.07;8.18;;;;;;;-144.31;100.00;58022.63;5040667;28;20049;-59
2023/01/20 14:06:51;;;;;;;16.33;8.52;;;;;;;-144.31;100.00;58022.63;5037276;28;20451;-58
2023/01/20 14:10:22;;;;;;;18.55;9.35;;;;;;;-144.31;100.00;58022.63;5038942;28;20028;-56
2023/01/20 14:13:51;;;;;;;14.15;8.45;;;;;;;-144.31;100.00;58022.63;5038037;28;20136;-57
2023/01/20 14:17:25;;;;;;;12.75;7.72;;;;;;;-144.31;100.00;58022.63;5031419;28;20128;-56
2023/01/20 14:20:56;;;;;;;9.88;6.45;;;;;;;-144.31;100.00;58022.63;5044184;28;20045;-55
2023/01/20 14:23:30;;;;;;;14.30;6.72;;;;;;;-144.31;100.00;58022.63;5034331;28;20148;-57
2023/01/20 14:26:01;;;;;;;11.48;6.05;;;;;;;-144.31;100.00;58022.63;5035399;28;20167;-58
2023/01/20 14:28:27;;;;;;;12.23;6.60;;;;;;;-144.31;100.00;58022.63;5040602;28;20052;-58
2023/01/20 14:31:24;;;;;;;12.32;6.53;;;;;;;-144.31;100.00;58022.63;5035968;28;20036;-57
2023/01/20 14:33:57;;;;;;;13.20;5.93;;;;;;;-144.31;100.00;58022.63;5046695;28;20136;-58
2023/01/20 14:36:24;;;;;;;9.23;5.60;;;;;;;-144.31;100.00;58022.63;5035443;28;20428;-57